sensor_id;sensor_type;location;lat;lon;timestamp;P1;durP1;ratioP1;P2;durP2;ratioP2
46953;SDS011;32707;43.886;12.874;2023-02-01T00:00:44;3.50;;;1.93;;
46953;SDS011;32707;43.886;12.874;2023-02-01T00:03:09;4.80;;;2.30;;
46953;SDS011;32707;43.886;12.874;2023-02-01T00:05:36;7.35;;;2.47;;
46953;SDS011;32707;43.886;12.874;2023-02-01T00:08:03;2.97;;;1.63;;
46953;SDS011;32707;43.886;12.874;2023-02-01T00:10:29;4.70;;;2.05;;
46953;SDS011;32707;43.886;12.874;2023-02-01T00:12:54;9.80;;;2.60;;
46953;SDS011;32707;43.886;12.874;2023-02-01T00:15:19;5.20;;;2.38;;
46953;SDS011;32707;43.886;12.874;2023-02-01T00:17:45;3.50;;;1.40;;
46953;SDS011;32707;43.886;12.874;2023-02-01T00:20:11;5.70;;;2.42;;
46953;SDS011;32707;43.886;12.874;2023-02-01T00:22:36;2.75;;;1.90;;
46953;SDS011;32707;43.886;12.874;2023-02-01T00:25:02;4.07;;;2.10;;
46953;SDS011;32707;43.886;12.874;2023-02-01T00:27:27;4.82;;;2.53;;
46953;SDS011;32707;43.886;12.874;2023-02-01T00:29:54;6.47;;;2.17;;
46953;SDS011;32707;43.886;12.874;2023-02-01T00:32:19;5.15;;;1.50;;
46953;SDS011;32707;43.886;12.874;2023-02-01T00:34:44;5.40;;;2.43;;
46953;SDS011;32707;43.886;12.874;2023-02-01T00:37:09;1.73;;;1.30;;
46953;SDS011;32707;43.886;12.874;2023-02-01T00:39:35;2.58;;;1.77;;
46953;SDS011;32707;43.886;12.874;2023-02-01T00:42:00;3.85;;;1.83;;
46953;SDS011;32707;43.886;12.874;2023-02-01T00:44:26;3.45;;;2.05;;
46953;SDS011;32707;43.886;12.874;2023-02-01T00:46:52;4.35;;;2.17;;
46953;SDS011;32707;43.886;12.874;2023-02-01T00:49:17;3.10;;;1.80;;
46953;SDS011;32707;43.886;12.874;2023-02-01T00:51:42;6.97;;;1.35;;
46953;SDS011;32707;43.886;12.874;2023-02-01T00:54:08;2.72;;;1.50;;
46953;SDS011;32707;43.886;12.874;2023-02-01T00:56:33;3.35;;;1.77;;
46953;SDS011;32707;43.886;12.874;2023-02-01T00:58:58;3.97;;;2.25;;
46953;SDS011;32707;43.886;12.874;2023-02-01T01:01:24;3.20;;;1.60;;
46953;SDS011;32707;43.886;12.874;2023-02-01T01:03:51;3.03;;;1.70;;
46953;SDS011;32707;43.886;12.874;2023-02-01T01:06:18;7.10;;;1.83;;
46953;SDS011;32707;43.886;12.874;2023-02-01T01:08:44;3.45;;;1.50;;
46953;SDS011;32707;43.886;12.874;2023-02-01T01:11:11;2.75;;;1.77;;
46953;SDS011;32707;43.886;12.874;2023-02-01T01:13:37;3.95;;;2.03;;
46953;SDS011;32707;43.886;12.874;2023-02-01T01:16:03;6.50;;;2.00;;
46953;SDS011;32707;43.886;12.874;2023-02-01T01:18:29;2.53;;;1.70;;
46953;SDS011;32707;43.886;12.874;2023-02-01T01:20:55;5.93;;;1.80;;
46953;SDS011;32707;43.886;12.874;2023-02-01T01:23:20;4.32;;;2.22;;
46953;SDS011;32707;43.886;12.874;2023-02-01T01:25:45;4.82;;;1.92;;
46953;SDS011;32707;43.886;12.874;2023-02-01T01:28:11;3.80;;;1.40;;
46953;SDS011;32707;43.886;12.874;2023-02-01T01:30:36;4.65;;;1.77;;
46953;SDS011;32707;43.886;12.874;2023-02-01T01:33:01;3.95;;;1.95;;
46953;SDS011;32707;43.886;12.874;2023-02-01T01:35:28;2.80;;;1.52;;
46953;SDS011;32707;43.886;12.874;2023-02-01T01:37:54;4.28;;;1.30;;
46953;SDS011;32707;43.886;12.874;2023-02-01T01:40:19;5.47;;;1.60;;
46953;SDS011;32707;43.886;12.874;2023-02-01T01:42:44;4.10;;;1.85;;
46953;SDS011;32707;43.886;12.874;2023-02-01T01:45:26;4.78;;;1.45;;
46953;SDS011;32707;43.886;12.874;2023-02-01T01:47:53;5.50;;;1.60;;
46953;SDS011;32707;43.886;12.874;2023-02-01T01:50:20;3.38;;;1.23;;
46953;SDS011;32707;43.886;12.874;2023-02-01T01:52:49;2.85;;;1.80;;
46953;SDS011;32707;43.886;12.874;2023-02-01T01:55:15;3.50;;;1.88;;
46953;SDS011;32707;43.886;12.874;2023-02-01T01:57:42;4.65;;;2.05;;
46953;SDS011;32707;43.886;12.874;2023-02-01T02:00:13;5.90;;;1.92;;
46953;SDS011;32707;43.886;12.874;2023-02-01T02:02:39;6.28;;;1.75;;
46953;SDS011;32707;43.886;12.874;2023-02-01T02:05:05;3.03;;;1.60;;
46953;SDS011;32707;43.886;12.874;2023-02-01T02:07:32;5.40;;;1.60;;
46953;SDS011;32707;43.886;12.874;2023-02-01T02:09:59;2.38;;;1.80;;
46953;SDS011;32707;43.886;12.874;2023-02-01T02:12:25;2.20;;;1.42;;
46953;SDS011;32707;43.886;12.874;2023-02-01T02:14:50;5.35;;;1.92;;
46953;SDS011;32707;43.886;12.874;2023-02-01T02:33:52;1.38;;;1.20;;
46953;SDS011;32707;43.886;12.874;2023-02-01T02:38:54;7.05;;;1.80;;
46953;SDS011;32707;43.886;12.874;2023-02-01T02:44:09;1.67;;;0.95;;
46953;SDS011;32707;43.886;12.874;2023-02-01T02:46:53;7.47;;;1.45;;
46953;SDS011;32707;43.886;12.874;2023-02-01T02:49:42;3.20;;;1.40;;
46953;SDS011;32707;43.886;12.874;2023-02-01T02:52:32;4.50;;;1.33;;
46953;SDS011;32707;43.886;12.874;2023-02-01T02:55:17;9.63;;;1.77;;
46953;SDS011;32707;43.886;12.874;2023-02-01T02:57:42;2.80;;;1.02;;
46953;SDS011;32707;43.886;12.874;2023-02-01T03:00:28;2.83;;;1.65;;
46953;SDS011;32707;43.886;12.874;2023-02-01T03:03:13;2.97;;;1.55;;
46953;SDS011;32707;43.886;12.874;2023-02-01T03:05:57;2.75;;;1.10;;
46953;SDS011;32707;43.886;12.874;2023-02-01T03:08:26;1.02;;;0.90;;
46953;SDS011;32707;43.886;12.874;2023-02-01T03:11:05;3.88;;;1.67;;
46953;SDS011;32707;43.886;12.874;2023-02-01T03:18:30;5.65;;;1.95;;
46953;SDS011;32707;43.886;12.874;2023-02-01T03:20:57;13.30;;;2.17;;
46953;SDS011;32707;43.886;12.874;2023-02-01T03:23:24;3.58;;;1.67;;
46953;SDS011;32707;43.886;12.874;2023-02-01T03:25:51;2.17;;;1.40;;
46953;SDS011;32707;43.886;12.874;2023-02-01T03:28:18;2.92;;;1.50;;
46953;SDS011;32707;43.886;12.874;2023-02-01T03:30:46;3.13;;;1.75;;
46953;SDS011;32707;43.886;12.874;2023-02-01T03:33:17;2.72;;;1.40;;
46953;SDS011;32707;43.886;12.874;2023-02-01T03:38:32;4.68;;;1.25;;
46953;SDS011;32707;43.886;12.874;2023-02-01T03:41:23;3.65;;;1.67;;
46953;SDS011;32707;43.886;12.874;2023-02-01T03:43:55;2.17;;;1.50;;
46953;SDS011;32707;43.886;12.874;2023-02-01T03:46:25;2.53;;;1.40;;
46953;SDS011;32707;43.886;12.874;2023-02-01T03:48:52;2.08;;;1.42;;
46953;SDS011;32707;43.886;12.874;2023-02-01T03:51:19;5.05;;;1.48;;
46953;SDS011;32707;43.886;12.874;2023-02-01T03:53:45;7.88;;;1.60;;
46953;SDS011;32707;43.886;12.874;2023-02-01T03:56:13;1.55;;;0.82;;
46953;SDS011;32707;43.886;12.874;2023-02-01T03:58:38;3.17;;;1.30;;
46953;SDS011;32707;43.886;12.874;2023-02-01T04:01:03;8.27;;;1.92;;
46953;SDS011;32707;43.886;12.874;2023-02-01T04:03:29;4.25;;;1.58;;
46953;SDS011;32707;43.886;12.874;2023-02-01T04:05:54;5.43;;;1.35;;
46953;SDS011;32707;43.886;12.874;2023-02-01T04:08:20;2.88;;;1.27;;
46953;SDS011;32707;43.886;12.874;2023-02-01T04:10:45;6.80;;;1.55;;
46953;SDS011;32707;43.886;12.874;2023-02-01T04:13:11;6.20;;;1.38;;
46953;SDS011;32707;43.886;12.874;2023-02-01T04:15:36;6.25;;;1.75;;
46953;SDS011;32707;43.886;12.874;2023-02-01T04:18:02;5.38;;;1.45;;
46953;SDS011;32707;43.886;12.874;2023-02-01T04:20:27;10.00;;;1.63;;
46953;SDS011;32707;43.886;12.874;2023-02-01T04:22:52;5.63;;;1.27;;
46953;SDS011;32707;43.886;12.874;2023-02-01T04:25:18;6.07;;;1.50;;
46953;SDS011;32707;43.886;12.874;2023-02-01T04:27:43;4.28;;;1.23;;
46953;SDS011;32707;43.886;12.874;2023-02-01T04:30:09;5.43;;;1.63;;
46953;SDS011;32707;43.886;12.874;2023-02-01T04:32:35;6.72;;;1.77;;
46953;SDS011;32707;43.886;12.874;2023-02-01T04:35:00;11.57;;;1.67;;
46953;SDS011;32707;43.886;12.874;2023-02-01T04:37:26;4.97;;;1.40;;
46953;SDS011;32707;43.886;12.874;2023-02-01T04:39:51;15.43;;;1.40;;
46953;SDS011;32707;43.886;12.874;2023-02-01T04:42:16;5.03;;;2.00;;
46953;SDS011;32707;43.886;12.874;2023-02-01T04:44:41;2.33;;;1.73;;
46953;SDS011;32707;43.886;12.874;2023-02-01T04:47:07;5.30;;;1.67;;
46953;SDS011;32707;43.886;12.874;2023-02-01T04:49:33;7.88;;;1.65;;
46953;SDS011;32707;43.886;12.874;2023-02-01T04:51:58;5.63;;;1.52;;
46953;SDS011;32707;43.886;12.874;2023-02-01T04:54:24;3.67;;;1.40;;
46953;SDS011;32707;43.886;12.874;2023-02-01T04:56:49;5.50;;;1.88;;
46953;SDS011;32707;43.886;12.874;2023-02-01T04:59:14;2.80;;;1.52;;
46953;SDS011;32707;43.886;12.874;2023-02-01T05:01:39;5.88;;;1.88;;
46953;SDS011;32707;43.886;12.874;2023-02-01T05:04:05;1.87;;;1.40;;
46953;SDS011;32707;43.886;12.874;2023-02-01T05:06:30;5.05;;;1.33;;
46953;SDS011;32707;43.886;12.874;2023-02-01T05:08:55;9.60;;;1.70;;
46953;SDS011;32707;43.886;12.874;2023-02-01T05:11:21;6.60;;;1.90;;
46953;SDS011;32707;43.886;12.874;2023-02-01T05:14:04;2.35;;;1.13;;
46953;SDS011;32707;43.886;12.874;2023-02-01T05:16:29;6.88;;;1.85;;
46953;SDS011;32707;43.886;12.874;2023-02-01T05:18:55;6.05;;;1.27;;
46953;SDS011;32707;43.886;12.874;2023-02-01T05:21:20;2.95;;;1.58;;
46953;SDS011;32707;43.886;12.874;2023-02-01T05:23:45;16.02;;;2.20;;
46953;SDS011;32707;43.886;12.874;2023-02-01T05:26:29;2.97;;;1.35;;
46953;SDS011;32707;43.886;12.874;2023-02-01T05:28:55;4.40;;;1.15;;
46953;SDS011;32707;43.886;12.874;2023-02-01T05:31:20;4.95;;;1.65;;
46953;SDS011;32707;43.886;12.874;2023-02-01T05:33:46;2.03;;;1.20;;
46953;SDS011;32707;43.886;12.874;2023-02-01T05:36:11;2.88;;;1.60;;
46953;SDS011;32707;43.886;12.874;2023-02-01T05:38:36;12.77;;;2.20;;
46953;SDS011;32707;43.886;12.874;2023-02-01T05:41:01;1.77;;;1.33;;
46953;SDS011;32707;43.886;12.874;2023-02-01T05:43:27;2.80;;;1.40;;
46953;SDS011;32707;43.886;12.874;2023-02-01T05:45:52;4.93;;;1.42;;
46953;SDS011;32707;43.886;12.874;2023-02-01T05:48:18;6.53;;;1.70;;
46953;SDS011;32707;43.886;12.874;2023-02-01T05:50:43;3.17;;;1.27;;
46953;SDS011;32707;43.886;12.874;2023-02-01T05:53:09;7.30;;;2.17;;
46953;SDS011;32707;43.886;12.874;2023-02-01T05:55:34;5.50;;;1.75;;
46953;SDS011;32707;43.886;12.874;2023-02-01T05:57:59;4.97;;;2.10;;
46953;SDS011;32707;43.886;12.874;2023-02-01T06:00:24;8.38;;;1.75;;
46953;SDS011;32707;43.886;12.874;2023-02-01T06:02:50;5.43;;;1.85;;
46953;SDS011;32707;43.886;12.874;2023-02-01T06:05:15;8.63;;;1.80;;
46953;SDS011;32707;43.886;12.874;2023-02-01T06:07:40;3.10;;;2.03;;
46953;SDS011;32707;43.886;12.874;2023-02-01T06:10:06;10.27;;;2.60;;
46953;SDS011;32707;43.886;12.874;2023-02-01T06:12:31;3.35;;;1.55;;
46953;SDS011;32707;43.886;12.874;2023-02-01T06:14:56;5.43;;;1.77;;
46953;SDS011;32707;43.886;12.874;2023-02-01T06:17:23;3.90;;;1.58;;
46953;SDS011;32707;43.886;12.874;2023-02-01T06:19:48;8.98;;;1.77;;
46953;SDS011;32707;43.886;12.874;2023-02-01T06:22:14;5.85;;;2.13;;
46953;SDS011;32707;43.886;12.874;2023-02-01T06:24:39;7.63;;;2.37;;
46953;SDS011;32707;43.886;12.874;2023-02-01T06:27:05;8.40;;;2.00;;
46953;SDS011;32707;43.886;12.874;2023-02-01T06:29:31;4.25;;;2.15;;
46953;SDS011;32707;43.886;12.874;2023-02-01T06:31:57;6.57;;;2.17;;
46953;SDS011;32707;43.886;12.874;2023-02-01T06:34:22;5.63;;;2.13;;
46953;SDS011;32707;43.886;12.874;2023-02-01T06:36:47;9.27;;;2.75;;
46953;SDS011;32707;43.886;12.874;2023-02-01T06:39:13;12.48;;;4.00;;
46953;SDS011;32707;43.886;12.874;2023-02-01T06:41:41;11.35;;;2.78;;
46953;SDS011;32707;43.886;12.874;2023-02-01T06:44:07;11.27;;;1.83;;
46953;SDS011;32707;43.886;12.874;2023-02-01T06:46:33;6.20;;;3.33;;
46953;SDS011;32707;43.886;12.874;2023-02-01T06:48:58;6.78;;;3.67;;
46953;SDS011;32707;43.886;12.874;2023-02-01T06:51:24;9.65;;;3.80;;
46953;SDS011;32707;43.886;12.874;2023-02-01T06:53:51;7.88;;;4.30;;
46953;SDS011;32707;43.886;12.874;2023-02-01T06:56:16;19.70;;;4.30;;
46953;SDS011;32707;43.886;12.874;2023-02-01T06:58:41;9.00;;;2.40;;
46953;SDS011;32707;43.886;12.874;2023-02-01T07:01:07;7.68;;;3.67;;
46953;SDS011;32707;43.886;12.874;2023-02-01T07:03:33;9.63;;;3.00;;
46953;SDS011;32707;43.886;12.874;2023-02-01T07:05:59;6.22;;;3.38;;
46953;SDS011;32707;43.886;12.874;2023-02-01T07:08:28;8.50;;;3.28;;
46953;SDS011;32707;43.886;12.874;2023-02-01T07:10:53;6.15;;;3.65;;
46953;SDS011;32707;43.886;12.874;2023-02-01T07:13:19;15.00;;;3.05;;
46953;SDS011;32707;43.886;12.874;2023-02-01T07:15:44;8.70;;;3.00;;
46953;SDS011;32707;43.886;12.874;2023-02-01T07:18:11;12.32;;;3.30;;
46953;SDS011;32707;43.886;12.874;2023-02-01T07:20:39;14.70;;;3.58;;
46953;SDS011;32707;43.886;12.874;2023-02-01T07:23:04;13.25;;;4.88;;
46953;SDS011;32707;43.886;12.874;2023-02-01T07:25:29;17.57;;;4.47;;
46953;SDS011;32707;43.886;12.874;2023-02-01T07:27:54;17.95;;;6.07;;
46953;SDS011;32707;43.886;12.874;2023-02-01T07:30:20;22.10;;;4.30;;
46953;SDS011;32707;43.886;12.874;2023-02-01T07:32:45;9.95;;;3.55;;
46953;SDS011;32707;43.886;12.874;2023-02-01T07:35:10;14.57;;;4.18;;
46953;SDS011;32707;43.886;12.874;2023-02-01T07:37:36;11.20;;;2.97;;
46953;SDS011;32707;43.886;12.874;2023-02-01T07:40:01;9.17;;;3.00;;
46953;SDS011;32707;43.886;12.874;2023-02-01T07:42:26;5.40;;;2.90;;
46953;SDS011;32707;43.886;12.874;2023-02-01T07:44:51;5.87;;;2.90;;
46953;SDS011;32707;43.886;12.874;2023-02-01T07:47:20;11.88;;;3.53;;
46953;SDS011;32707;43.886;12.874;2023-02-01T07:49:45;11.68;;;4.82;;
46953;SDS011;32707;43.886;12.874;2023-02-01T07:52:10;7.47;;;3.50;;
46953;SDS011;32707;43.886;12.874;2023-02-01T07:54:38;24.38;;;3.92;;
46953;SDS011;32707;43.886;12.874;2023-02-01T07:57:03;9.20;;;3.80;;
46953;SDS011;32707;43.886;12.874;2023-02-01T07:59:28;9.10;;;4.13;;
46953;SDS011;32707;43.886;12.874;2023-02-01T08:01:53;10.00;;;4.40;;
46953;SDS011;32707;43.886;12.874;2023-02-01T08:04:19;8.40;;;4.20;;
46953;SDS011;32707;43.886;12.874;2023-02-01T08:06:44;14.00;;;5.03;;
46953;SDS011;32707;43.886;12.874;2023-02-01T08:09:10;12.97;;;4.70;;
46953;SDS011;32707;43.886;12.874;2023-02-01T08:11:36;12.50;;;4.35;;
46953;SDS011;32707;43.886;12.874;2023-02-01T08:14:02;16.63;;;4.85;;
46953;SDS011;32707;43.886;12.874;2023-02-01T08:16:28;7.45;;;3.85;;
46953;SDS011;32707;43.886;12.874;2023-02-01T08:18:53;9.77;;;4.03;;
46953;SDS011;32707;43.886;12.874;2023-02-01T08:21:20;11.45;;;4.03;;
46953;SDS011;32707;43.886;12.874;2023-02-01T08:23:47;5.80;;;2.42;;
46953;SDS011;32707;43.886;12.874;2023-02-01T08:26:20;8.90;;;3.03;;
46953;SDS011;32707;43.886;12.874;2023-02-01T08:28:47;8.57;;;2.30;;
46953;SDS011;32707;43.886;12.874;2023-02-01T08:31:14;4.60;;;1.95;;
46953;SDS011;32707;43.886;12.874;2023-02-01T08:33:40;11.35;;;2.42;;
46953;SDS011;32707;43.886;12.874;2023-02-01T08:36:06;7.32;;;2.60;;
46953;SDS011;32707;43.886;12.874;2023-02-01T08:38:32;9.75;;;2.78;;
46953;SDS011;32707;43.886;12.874;2023-02-01T08:40:57;5.03;;;1.63;;
46953;SDS011;32707;43.886;12.874;2023-02-01T08:43:22;6.63;;;2.35;;
46953;SDS011;32707;43.886;12.874;2023-02-01T08:45:49;9.98;;;2.08;;
46953;SDS011;32707;43.886;12.874;2023-02-01T08:48:14;5.50;;;1.67;;
46953;SDS011;32707;43.886;12.874;2023-02-01T08:50:41;12.40;;;2.22;;
46953;SDS011;32707;43.886;12.874;2023-02-01T08:53:06;6.07;;;2.40;;
46953;SDS011;32707;43.886;12.874;2023-02-01T08:55:31;8.27;;;1.93;;
46953;SDS011;32707;43.886;12.874;2023-02-01T08:57:56;5.70;;;2.13;;
46953;SDS011;32707;43.886;12.874;2023-02-01T09:00:22;11.93;;;2.88;;
46953;SDS011;32707;43.886;12.874;2023-02-01T09:02:47;13.48;;;3.90;;
46953;SDS011;32707;43.886;12.874;2023-02-01T09:05:12;12.50;;;2.33;;
46953;SDS011;32707;43.886;12.874;2023-02-01T09:07:39;4.45;;;1.67;;
46953;SDS011;32707;43.886;12.874;2023-02-01T09:10:04;8.10;;;3.17;;
46953;SDS011;32707;43.886;12.874;2023-02-01T09:12:31;6.70;;;3.55;;
46953;SDS011;32707;43.886;12.874;2023-02-01T09:14:57;8.57;;;3.08;;
46953;SDS011;32707;43.886;12.874;2023-02-01T09:17:24;6.03;;;2.65;;
46953;SDS011;32707;43.886;12.874;2023-02-01T09:19:50;6.15;;;2.20;;
46953;SDS011;32707;43.886;12.874;2023-02-01T09:22:15;6.22;;;2.25;;
46953;SDS011;32707;43.886;12.874;2023-02-01T09:24:41;5.70;;;1.80;;
46953;SDS011;32707;43.886;12.874;2023-02-01T09:27:06;10.00;;;2.00;;
46953;SDS011;32707;43.886;12.874;2023-02-01T09:29:31;10.37;;;2.53;;
46953;SDS011;32707;43.886;12.874;2023-02-01T09:31:57;6.57;;;1.92;;
46953;SDS011;32707;43.886;12.874;2023-02-01T09:34:22;8.70;;;2.05;;
46953;SDS011;32707;43.886;12.874;2023-02-01T09:36:47;5.93;;;1.88;;
46953;SDS011;32707;43.886;12.874;2023-02-01T09:39:13;8.47;;;2.00;;
46953;SDS011;32707;43.886;12.874;2023-02-01T09:46:46;5.63;;;1.92;;
46953;SDS011;32707;43.886;12.874;2023-02-01T09:49:13;4.93;;;2.30;;
46953;SDS011;32707;43.886;12.874;2023-02-01T09:51:42;5.80;;;1.65;;
46953;SDS011;32707;43.886;12.874;2023-02-01T09:54:42;7.40;;;1.98;;
46953;SDS011;32707;43.886;12.874;2023-02-01T10:01:54;5.57;;;1.80;;
46953;SDS011;32707;43.886;12.874;2023-02-01T10:04:19;6.63;;;2.20;;
46953;SDS011;32707;43.886;12.874;2023-02-01T10:11:46;2.78;;;1.90;;
46953;SDS011;32707;43.886;12.874;2023-02-01T10:19:32;4.17;;;1.60;;
46953;SDS011;32707;43.886;12.874;2023-02-01T10:22:01;5.45;;;1.90;;
46953;SDS011;32707;43.886;12.874;2023-02-01T10:27:29;2.65;;;1.40;;
46953;SDS011;32707;43.886;12.874;2023-02-01T10:29:59;4.70;;;1.63;;
46953;SDS011;32707;43.886;12.874;2023-02-01T10:32:29;7.72;;;1.90;;
46953;SDS011;32707;43.886;12.874;2023-02-01T10:34:57;4.15;;;1.60;;
46953;SDS011;32707;43.886;12.874;2023-02-01T10:39:56;8.50;;;1.55;;
46953;SDS011;32707;43.886;12.874;2023-02-01T10:42:26;3.45;;;1.63;;
46953;SDS011;32707;43.886;12.874;2023-02-01T10:44:52;5.18;;;1.67;;
46953;SDS011;32707;43.886;12.874;2023-02-01T10:47:18;4.18;;;1.92;;
46953;SDS011;32707;43.886;12.874;2023-02-01T10:49:52;3.60;;;1.83;;
46953;SDS011;32707;43.886;12.874;2023-02-01T10:52:20;8.07;;;1.50;;
46953;SDS011;32707;43.886;12.874;2023-02-01T10:54:50;12.20;;;2.13;;
46953;SDS011;32707;43.886;12.874;2023-02-01T10:57:26;7.17;;;2.30;;
46953;SDS011;32707;43.886;12.874;2023-02-01T10:59:53;10.43;;;2.95;;
46953;SDS011;32707;43.886;12.874;2023-02-01T11:04:58;4.15;;;1.70;;
46953;SDS011;32707;43.886;12.874;2023-02-01T11:07:23;9.48;;;3.00;;
46953;SDS011;32707;43.886;12.874;2023-02-01T11:09:51;3.53;;;1.90;;
46953;SDS011;32707;43.886;12.874;2023-02-01T11:12:23;4.80;;;1.83;;
46953;SDS011;32707;43.886;12.874;2023-02-01T11:14:49;1.65;;;1.35;;
46953;SDS011;32707;43.886;12.874;2023-02-01T11:19:46;8.85;;;1.58;;
46953;SDS011;32707;43.886;12.874;2023-02-01T11:22:11;6.43;;;1.95;;
46953;SDS011;32707;43.886;12.874;2023-02-01T11:24:37;5.88;;;2.17;;
46953;SDS011;32707;43.886;12.874;2023-02-01T11:27:04;13.32;;;1.48;;
46953;SDS011;32707;43.886;12.874;2023-02-01T11:29:34;7.55;;;1.38;;
46953;SDS011;32707;43.886;12.874;2023-02-01T11:32:00;4.15;;;1.45;;
46953;SDS011;32707;43.886;12.874;2023-02-01T11:34:28;5.50;;;2.03;;
46953;SDS011;32707;43.886;12.874;2023-02-01T11:36:56;6.97;;;1.48;;
46953;SDS011;32707;43.886;12.874;2023-02-01T11:39:33;3.33;;;1.40;;
46953;SDS011;32707;43.886;12.874;2023-02-01T11:46:55;3.45;;;1.60;;
46953;SDS011;32707;43.886;12.874;2023-02-01T11:49:21;7.43;;;1.40;;
46953;SDS011;32707;43.886;12.874;2023-02-01T11:59:53;9.68;;;1.65;;
46953;SDS011;32707;43.886;12.874;2023-02-01T12:04:59;5.55;;;2.28;;
46953;SDS011;32707;43.886;12.874;2023-02-01T12:15:19;6.95;;;1.80;;
46953;SDS011;32707;43.886;12.874;2023-02-01T12:23:06;6.82;;;2.65;;
46953;SDS011;32707;43.886;12.874;2023-02-01T12:28:30;3.92;;;1.50;;
46953;SDS011;32707;43.886;12.874;2023-02-01T12:33:33;8.60;;;1.92;;
46953;SDS011;32707;43.886;12.874;2023-02-01T12:36:14;4.68;;;1.58;;
46953;SDS011;32707;43.886;12.874;2023-02-01T12:38:51;2.90;;;1.65;;
46953;SDS011;32707;43.886;12.874;2023-02-01T12:43:59;3.37;;;1.70;;
46953;SDS011;32707;43.886;12.874;2023-02-01T12:47:29;2.40;;;1.73;;
46953;SDS011;32707;43.886;12.874;2023-02-01T12:51:59;2.40;;;1.15;;
46953;SDS011;32707;43.886;12.874;2023-02-01T12:54:34;7.50;;;2.10;;
46953;SDS011;32707;43.886;12.874;2023-02-01T12:57:03;4.68;;;1.63;;
46953;SDS011;32707;43.886;12.874;2023-02-01T12:59:44;7.38;;;1.73;;
46953;SDS011;32707;43.886;12.874;2023-02-01T13:04:49;4.80;;;1.35;;
46953;SDS011;32707;43.886;12.874;2023-02-01T13:07:21;5.20;;;1.80;;
46953;SDS011;32707;43.886;12.874;2023-02-01T13:09:51;8.27;;;1.67;;
46953;SDS011;32707;43.886;12.874;2023-02-01T13:12:20;3.65;;;1.48;;
46953;SDS011;32707;43.886;12.874;2023-02-01T13:14:48;11.43;;;1.90;;
46953;SDS011;32707;43.886;12.874;2023-02-01T13:17:19;5.82;;;1.90;;
46953;SDS011;32707;43.886;12.874;2023-02-01T13:19:50;3.65;;;1.52;;
46953;SDS011;32707;43.886;12.874;2023-02-01T13:22:19;14.07;;;2.03;;
46953;SDS011;32707;43.886;12.874;2023-02-01T13:24:50;5.60;;;2.92;;
46953;SDS011;32707;43.886;12.874;2023-02-01T13:27:16;18.10;;;2.47;;
46953;SDS011;32707;43.886;12.874;2023-02-01T13:29:55;7.40;;;2.10;;
46953;SDS011;32707;43.886;12.874;2023-02-01T13:32:29;5.50;;;1.63;;
46953;SDS011;32707;43.886;12.874;2023-02-01T13:42:46;6.30;;;2.40;;
46953;SDS011;32707;43.886;12.874;2023-02-01T13:45:20;10.80;;;3.50;;
46953;SDS011;32707;43.886;12.874;2023-02-01T13:47:48;11.68;;;3.08;;
46953;SDS011;32707;43.886;12.874;2023-02-01T13:50:30;9.60;;;3.35;;
46953;SDS011;32707;43.886;12.874;2023-02-01T13:55:37;9.32;;;4.03;;
46953;SDS011;32707;43.886;12.874;2023-02-01T14:00:32;17.47;;;4.20;;
46953;SDS011;32707;43.886;12.874;2023-02-01T14:13:13;16.77;;;5.35;;
46953;SDS011;32707;43.886;12.874;2023-02-01T14:15:38;9.00;;;4.13;;
46953;SDS011;32707;43.886;12.874;2023-02-01T14:18:48;10.57;;;4.40;;
46953;SDS011;32707;43.886;12.874;2023-02-01T14:20:49;11.48;;;4.65;;
46953;SDS011;32707;43.886;12.874;2023-02-01T14:23:16;14.98;;;4.70;;
46953;SDS011;32707;43.886;12.874;2023-02-01T14:25:43;9.25;;;4.75;;
46953;SDS011;32707;43.886;12.874;2023-02-01T14:28:12;10.70;;;5.00;;
46953;SDS011;32707;43.886;12.874;2023-02-01T14:30:46;13.20;;;4.78;;
46953;SDS011;32707;43.886;12.874;2023-02-01T14:33:19;12.60;;;5.22;;
46953;SDS011;32707;43.886;12.874;2023-02-01T14:35:52;19.27;;;5.82;;
46953;SDS011;32707;43.886;12.874;2023-02-01T14:38:20;11.55;;;4.80;;
46953;SDS011;32707;43.886;12.874;2023-02-01T14:40:46;10.10;;;5.55;;
46953;SDS011;32707;43.886;12.874;2023-02-01T14:43:11;17.38;;;5.28;;
46953;SDS011;32707;43.886;12.874;2023-02-01T15:00:49;14.73;;;4.97;;
46953;SDS011;32707;43.886;12.874;2023-02-01T15:05:58;12.18;;;5.13;;
46953;SDS011;32707;43.886;12.874;2023-02-01T15:08:30;18.75;;;5.45;;
46953;SDS011;32707;43.886;12.874;2023-02-01T15:10:56;17.05;;;6.57;;
46953;SDS011;32707;43.886;12.874;2023-02-01T15:13:26;21.20;;;8.45;;
46953;SDS011;32707;43.886;12.874;2023-02-01T15:16:12;25.60;;;10.38;;
46953;SDS011;32707;43.886;12.874;2023-02-01T15:18:37;27.80;;;10.50;;
46953;SDS011;32707;43.886;12.874;2023-02-01T15:21:03;36.50;;;15.30;;
46953;SDS011;32707;43.886;12.874;2023-02-01T15:23:30;36.63;;;14.32;;
46953;SDS011;32707;43.886;12.874;2023-02-01T15:25:55;27.80;;;13.70;;
46953;SDS011;32707;43.886;12.874;2023-02-01T15:28:21;20.83;;;11.20;;
46953;SDS011;32707;43.886;12.874;2023-02-01T15:33:18;36.97;;;10.45;;
46953;SDS011;32707;43.886;12.874;2023-02-01T15:43:34;35.33;;;13.18;;
46953;SDS011;32707;43.886;12.874;2023-02-01T15:46:07;28.42;;;11.90;;
46953;SDS011;32707;43.886;12.874;2023-02-01T15:48:43;35.63;;;13.20;;
46953;SDS011;32707;43.886;12.874;2023-02-01T15:51:19;34.95;;;13.90;;
46953;SDS011;32707;43.886;12.874;2023-02-01T15:54:06;38.20;;;16.05;;
46953;SDS011;32707;43.886;12.874;2023-02-01T15:56:35;42.95;;;14.93;;
46953;SDS011;32707;43.886;12.874;2023-02-01T15:59:02;38.13;;;14.48;;
46953;SDS011;32707;43.886;12.874;2023-02-01T16:01:36;29.30;;;13.05;;
46953;SDS011;32707;43.886;12.874;2023-02-01T16:06:36;25.48;;;11.65;;
46953;SDS011;32707;43.886;12.874;2023-02-01T16:09:09;24.30;;;10.80;;
46953;SDS011;32707;43.886;12.874;2023-02-01T16:11:51;20.02;;;10.57;;
46953;SDS011;32707;43.886;12.874;2023-02-01T16:14:17;26.77;;;11.52;;
46953;SDS011;32707;43.886;12.874;2023-02-01T16:16:42;23.00;;;11.85;;
46953;SDS011;32707;43.886;12.874;2023-02-01T16:19:08;29.63;;;13.00;;
46953;SDS011;32707;43.886;12.874;2023-02-01T16:21:33;26.20;;;11.60;;
46953;SDS011;32707;43.886;12.874;2023-02-01T16:23:58;30.13;;;12.20;;
46953;SDS011;32707;43.886;12.874;2023-02-01T16:26:28;40.08;;;14.60;;
46953;SDS011;32707;43.886;12.874;2023-02-01T16:28:54;50.17;;;14.82;;
46953;SDS011;32707;43.886;12.874;2023-02-01T16:31:21;34.88;;;14.23;;
46953;SDS011;32707;43.886;12.874;2023-02-01T16:33:51;49.63;;;17.55;;
46953;SDS011;32707;43.886;12.874;2023-02-01T16:36:16;46.38;;;19.17;;
46953;SDS011;32707;43.886;12.874;2023-02-01T16:38:42;47.63;;;19.55;;
46953;SDS011;32707;43.886;12.874;2023-02-01T16:41:12;48.20;;;21.48;;
46953;SDS011;32707;43.886;12.874;2023-02-01T16:43:38;29.75;;;13.43;;
46953;SDS011;32707;43.886;12.874;2023-02-01T16:46:04;23.20;;;10.63;;
46953;SDS011;32707;43.886;12.874;2023-02-01T16:48:30;20.63;;;8.73;;
46953;SDS011;32707;43.886;12.874;2023-02-01T16:50:57;29.48;;;10.57;;
46953;SDS011;32707;43.886;12.874;2023-02-01T16:53:23;20.63;;;10.02;;
46953;SDS011;32707;43.886;12.874;2023-02-01T16:55:49;32.50;;;10.90;;
46953;SDS011;32707;43.886;12.874;2023-02-01T16:58:15;31.53;;;10.47;;
46953;SDS011;32707;43.886;12.874;2023-02-01T17:00:41;29.83;;;11.90;;
46953;SDS011;32707;43.886;12.874;2023-02-01T17:03:06;32.90;;;12.55;;
46953;SDS011;32707;43.886;12.874;2023-02-01T17:05:32;29.88;;;9.68;;
46953;SDS011;32707;43.886;12.874;2023-02-01T17:08:00;32.15;;;11.90;;